Aviation Digital Data Service (ADDS)

Output produced by TAFs form (2208 UTC 27 March 2015)
found at http://aviationweather.gov/adds/tafs/
 
KDRO 272101Z 2721/2818 20012G18KT P6SM FEW090 
     FM280200 02004KT P6SM SKC 
     FM281200 00000KT P6SM SKC